Allen, Indiana
Current Conditions -  °F | °C
As of 2:15 PM on Thursday 27 Nov 2014 (Local Time) from KGWB Reporting Station
Overcast Overcast  
Wind Chill: 24°   Ceiling: 2100
Heat Index: 32°   Visibility: 10mi
Dew Point: 27°   Wind: 10mph
Humidity: 80%   Direction: 270°W
Pressure: 30.22"   Gusts: 21mph
Location:  41.4608°N, 85.2531°W
Report Text: KGWB 271915Z AUTO 27009G18KT 10SM BKN021 OVC030 00/M03 A3022 RMK AO2
Loading
Personal Weather Stations






























Interactive Weather Map New forecast layout! Learn more

10-Day Weather Forecast

Advertisements
Track Severe Weather on mobile